Issue Checklist for Creator Stan Lynde (b. 1931):

Displaying 1 to 100 of 274 issues matching your query.

In the checklist results for stories, covers, and cartoons are shown. Text credits are currently being migrated to links. Therefore not all credits in our database are shown here.

Publisher Issue Publication Date On-sale Date
NONordisk Forlag Fantomet (1973 series) #25/1973 uke 50 1973 1973-12-11
NONordisk Forlag Fantomet (1973 series) #26/1973 uke 52 1973 1973-12-22
NONordisk Forlag Fantomet (1973 series) #2/1974 uke 4 1974 1974-01-22
NONordisk Forlag Fantomet (1973 series) #4/1974 uke 8 1974 1974-02-19
NONordisk Forlag Fantomet (1973 series) #8/1974 uke 16 1974 1974-04-16
NONordisk Forlag Fantomet (1973 series) #12/1974 uke 24 1974 1974-06-11
NONordisk Forlag Fantomet (1973 series) #14/1974 uke 28 1974 1974-07-09
NONordisk Forlag Fantomet (1973 series) #15/1974 uke 30 1974 1974-07-23
NONordisk Forlag Fantomet (1973 series) #17/1974 uke 34 1974 1974-08-20
NONordisk Forlag Fantomet (1973 series) #22/1974 uke 44 1974 1974-10-29
NONordisk Forlag Fantomet (1973 series) #26/1974 uke 52 1974 1974-12-21
NONordisk Forlag Fantomet (1973 series) #1/1975 uke 2 1975 1975-01-07
NONordisk Forlag Fantomet (1973 series) #2/1975 uke 4 1975 1975-01-21
NONordisk Forlag Fantomet (1973 series) #3/1975 uke 6 1975 1975-02-04
NONordisk Forlag Fantomet (1973 series) #4/1975 uke 8 1975 1975-02-18
NONordisk Forlag Fantomet (1973 series) #5/1975 uke 10 1975 1975-03-04
NONordisk Forlag Fantomet (1973 series) #7/1975 uke 14 1975 1975-04-01
NONordisk Forlag Fantomet (1973 series) #8/1975 uke 16 1975 1975-04-15
NONordisk Forlag Fantomet (1973 series) #10/1975 uke 20 1975 1975-05-13
NONordisk Forlag Fantomet (1973 series) #12/1975 uke 24 1975 1975-06-10
NONordisk Forlag Fantomet (1973 series) #14/1975 uke 28 1975 1975-07-08
NONordisk Forlag Fantomet (1973 series) #15/1975 uke 30 1975 1975-07-22
NONordisk Forlag Fantomet (1973 series) #20/1975 uke 40 1975 1975-09-30
NONordisk Forlag Fantomet (1973 series) #7/1976 uke 14 1976 1976-03-30
NONordisk Forlag Fantomet (1973 series) #8/1976 uke 15 1976 1976-04-09
NONordisk Forlag Fantomet (1973 series) #15/1976 uke 30 1976 1976-07-20
NONordisk Forlag Fantomet (1973 series) #21/1976 uke 42 1976 1976-10-12
USBerkley Books The Comics: An Illustrated History of Comic Strip Art (1976 series) November 1976
NONordisk Forlag Fantomet (1973 series) #23/1976 uke 46 1976 1976-11-09
NOSemic Fantomet (1976 series) #25/1976 uke 50 1976 1976-12-07
NOSemic Fantomet (1976 series) #26/1976 uke 52 1976 1976-12-21
NOSemic Fantomet (1976 series) #2/1977 uke 3 1977 1977-01-18
NOSemic Fantomet (1976 series) #6/1977 uke 11 1977 1977-03-15
NOSemic Fantomet (1976 series) #10/1977 uke 19 1977 1977-05-10
NOSemic Fantomet (1976 series) #13/1977 uke 25 1977 1977-06-21
NOSemic Fantomet (1976 series) #18/1977 uke 35 1977 1977-08-30
NOSemic Fantomet (1976 series) #19/1977 uke 37 1977 1977-09-13
NOSemic Fantomet (1976 series) #20/1977 uke 39 1977 1977-09-27
NOSemic Fantomet (1976 series) #25/1977 uke 49 1977 1977-12-06
NOSemic Fantomet (1976 series) #1/1978 uke 1 1978 1978-01-03
NOSemic Fantomet (1976 series) #6/1978 uke 11 1978 1978-03-14
NOSemic Fantomet (1976 series) #9/1978 uke 17 1978 1978-04-25
NOSemic Fantomet (1976 series) #11/1978 uke 21 1978 1978-05-23
NOSemic Fantomet (1976 series) #14/1978 uke 27 1978 1978-07-04
NOSemic Fantomet (1976 series) #15/1978 uke 29 1978 1978-07-18
NOSemic Fantomet (1976 series) #18/1978 uke 17 1978 1978-08-29
NOSemic Fantomet (1976 series) #19/1978 uke 37 1978 1978-09-12
NOSemic Fantomet (1976 series) #20/1978 uke 39 1978 1978-09-26
NOSemic Fantomet (1976 series) #21/1978 uke 41 1978 1978-10-10
NOSemic Fantomet (1976 series) #22/1978 uke 43 1978 1978-10-24
NOSemic Fantomet (1976 series) #23/1978 uke 45 1978 1978-11-07
NOSemic Fantomet (1976 series) #24/1978 uke 47 1978 1978-11-21
NOSemic Fantomet (1976 series) #26/1978 uke 51 1978 1978-12-19
NOSemic Fantomet (1976 series) #2/1979 uke 3 1979 1979-01-16
NOSemic Fantomet (1976 series) #3/1979 uke 5 1979 1979-01-30
NOSemic Fantomet (1976 series) #4/1979 uke 7 1979 1979-02-13
NOSemic Fantomet (1976 series) #6/1979 uke 11 1979 1979-03-13
NOSemic Fantomet (1976 series) #9/1979 uke 17 1979 1979-04-24
NOSemic Fantomet (1976 series) #14/1979 uke 27 1979 1979-07-03
NOSemic Fantomet (1976 series) #16/1979 uke 31 1979 1979-07-31
NOSemic Fantomet (1976 series) #18/1979 uke 35 1979 1979-08-28
NOSemic Fantomet (1976 series) #22/1979 uke 43 1979 1979-10-23
NOSemic Fantomet (1976 series) #26/1979 uke 51 1979 1979-12-18
NOSemic Fantomet (1976 series) #1/1980 uke 1 1980 1980-01-02
NOSemic Fantomet (1976 series) #2/1980 uke 3 1980 1980-01-15
NOSemic Fantomet (1976 series) #6/1980 uke 11 1980 1980-03-11
NOHjemmet / Egmont Supertempo (1979 series) #10/1980 - Latigo - Lovløs by oktober 1980 1980-10-07
NOSemic Fantomet (1976 series) #24/1982 uke 47 1982 1982-11-23
NOSemic Fantomet (1976 series) #6/1983 uke 11 1983 1983-03-15
NOSemic Fantomet (1976 series) #19/1983 uke 37 1983 1983-09-13
NOSemic Fantomet (1976 series) #20/1983 uke 39 1983 1983-09-27
NOSemic Fantomet (1976 series) #26/1983 uke 51 1983 1983-12-20
USManuscript Press Comics Review (1984 series) #8 [Late] 1984
NOSemic Fantomet (1976 series) #4/1984 uke 7 1984 1984-02-14
NOSemic Fantomet (1976 series) #7/1984 uke 13 1984 1984-03-27
NOSemic Fantomet (1976 series) #12/1984 uke 23 1984 1984-06-05
SESemic Fantomen (1958 series) #13/1984 [26 juni] 1984 1984-06-26
USManuscript Press Comics Review (1984 series) #6 August 1984
USManuscript Press Comics Review (1984 series) #7 [Fall] 1984
NOSemic Fantomet (1976 series) #23/1984 uke 45 1984 1984-11-06
USManuscript Press Comics Review (1984 series) #9 [Early] 1985
USManuscript Press Comics Revue (1985 series) #14 1985
NOSemic Fantomet (1976 series) #3/1985 uke 5 1985 1985-01-29
NOSemic Fantomet (1976 series) #5/1985 uke 9 1985 1985-02-26
NOSemic Fantomet (1976 series) #8/1985 uke 15 1985 1985-04-09
NOSemic Fantomet (1976 series) #11/1985 uke 21 1985 1985-05-21
NOSemic Fantomet (1976 series) #16/1985 uke 31 1985 1985-07-30
NOSemic Fantomet (1976 series) #17/1985 uke 33 1985 1985-08-13
NOSemic Fantomet (1976 series) #21/1985 uke 41 1985 1985-10-08
NOSemic Fantomet (1976 series) #22/1985 uke 43 1985 1985-10-22
NOSemic Fantomet (1976 series) #26/1985 uke 51 1985 1985-12-17
USManuscript Press Comics Revue (1985 series) #17 1986
NOSemic Fantomet (1976 series) #1/1986 uke 1 1986 1985-12-30
NOSemic Fantomet (1976 series) #8/1986 uke 8 1986 1986-04-08
NOSemic Fantomet (1976 series) #10/1986 uke 19 1986 1986-05-06
NOSemic Fantomet (1976 series) #13-14/1986 uke 25 1986 1986-06-17
NOSemic Fantomet (1976 series) #17/1986 uke 33 1986 1986-08-12
NOSemic Fantomet (1976 series) #19/1986 uke 37 1986 1986-09-09
NOSemic Fantomet (1976 series) #20/1986 uke 39 1986 1986-09-23
NOSemic Fantomet (1976 series) #23/1986 uke 45 1986 1986-11-04

Download the shown data as .csv or .json.
Download the raw database fields for the shown objects as .csv or .json. Technical note, this download does include only the IDs of foreign keys and contains no many-to-many relationships.

Issue Checklist for Creator Stan Lynde (b. 1931):

Displaying 1 to 100 of 274 issues matching your query.